createdAt,value
2017-04-27T00:00:17.454Z,0
2017-04-27T00:00:43.549Z,0
2017-04-27T00:01:09.781Z,0
2017-04-27T00:01:35.869Z,0
2017-04-27T00:02:01.988Z,0
2017-04-27T00:02:28.091Z,0
2017-04-27T00:02:54.183Z,0
2017-04-27T00:03:20.272Z,0
2017-04-27T00:03:46.380Z,0
2017-04-27T00:04:12.472Z,0
2017-04-27T00:04:38.559Z,0
2017-04-27T00:05:04.663Z,0
2017-04-27T00:05:30.760Z,0
2017-04-27T00:05:56.859Z,0
2017-04-27T00:06:22.950Z,0
2017-04-27T00:06:49.040Z,0
2017-04-27T00:07:15.148Z,0
2017-04-27T00:07:41.242Z,0
2017-04-27T00:08:07.354Z,0
2017-04-27T00:08:33.459Z,0
2017-04-27T00:08:59.555Z,0
2017-04-27T00:09:25.667Z,0
2017-04-27T00:09:51.767Z,0
2017-04-27T00:10:17.898Z,0
2017-04-27T00:10:44.011Z,0
2017-04-27T00:11:10.130Z,0
2017-04-27T00:11:36.274Z,0
2017-04-27T00:12:02.379Z,0
2017-04-27T00:12:28.476Z,0
2017-04-27T00:12:54.563Z,0
2017-04-27T00:13:20.689Z,0
2017-04-27T00:13:46.794Z,0
2017-04-27T00:14:12.877Z,0
2017-04-27T00:14:38.976Z,0
2017-04-27T00:15:05.106Z,0
2017-04-27T00:15:31.196Z,0
2017-04-27T00:15:57.286Z,0
2017-04-27T00:16:23.389Z,0
2017-04-27T00:16:49.480Z,0
2017-04-27T00:17:15.567Z,0
2017-04-27T00:17:41.674Z,0
2017-04-27T00:18:07.769Z,0
2017-04-27T00:18:33.857Z,0
2017-04-27T00:18:59.961Z,0
2017-04-27T00:19:26.086Z,0
2017-04-27T00:19:52.222Z,0
2017-04-27T00:20:18.322Z,0
2017-04-27T00:20:44.576Z,0
2017-04-27T00:21:10.662Z,0
2017-04-27T00:21:36.789Z,0
2017-04-27T00:22:02.864Z,0
2017-04-27T00:22:28.949Z,0
2017-04-27T00:22:55.075Z,0
2017-04-27T00:23:21.184Z,0
2017-04-27T00:23:47.284Z,0
2017-04-27T00:24:13.416Z,0
2017-04-27T00:24:39.525Z,0
2017-04-27T00:25:05.620Z,0
2017-04-27T00:25:31.727Z,0
2017-04-27T00:25:57.816Z,0
2017-04-27T00:26:23.910Z,0
2017-04-27T00:26:50.015Z,0
2017-04-27T00:27:16.129Z,0
2017-04-27T00:27:42.240Z,0
2017-04-27T00:28:08.339Z,0
2017-04-27T00:28:34.435Z,0
2017-04-27T00:29:00.539Z,0
2017-04-27T00:29:26.624Z,0
2017-04-27T00:29:52.718Z,0
2017-04-27T00:30:18.821Z,0
2017-04-27T00:30:44.965Z,0
2017-04-27T00:31:11.076Z,0
2017-04-27T00:31:37.184Z,0
2017-04-27T00:32:03.279Z,0
2017-04-27T00:32:29.366Z,0
2017-04-27T00:32:55.498Z,0
2017-04-27T00:33:21.623Z,0
2017-04-27T00:33:47.718Z,0
2017-04-27T00:34:13.837Z,0
2017-04-27T00:34:39.976Z,0
2017-04-27T00:35:06.135Z,0
2017-04-27T00:35:32.229Z,0
2017-04-27T00:35:58.317Z,0
2017-04-27T00:36:24.421Z,0
2017-04-27T00:36:50.545Z,0
2017-04-27T00:37:16.655Z,0
2017-04-27T00:37:42.756Z,0
2017-04-27T00:38:08.959Z,0
2017-04-27T00:38:35.067Z,0
2017-04-27T00:39:01.189Z,0
2017-04-27T00:39:27.318Z,0
2017-04-27T00:39:53.407Z,0
2017-04-27T00:40:19.523Z,0
2017-04-27T00:40:45.626Z,0
2017-04-27T00:41:11.745Z,0
2017-04-27T00:41:37.832Z,0
2017-04-27T00:42:03.937Z,0
2017-04-27T00:42:30.032Z,0
2017-04-27T00:42:56.121Z,0
2017-04-27T00:43:22.275Z,0
2017-04-27T00:43:48.372Z,0
2017-04-27T00:44:14.460Z,0
2017-04-27T00:44:40.561Z,0
2017-04-27T00:45:06.674Z,0
2017-04-27T00:45:32.805Z,0
2017-04-27T00:45:58.927Z,0
2017-04-27T00:46:25.015Z,0
2017-04-27T00:46:51.145Z,0
2017-04-27T00:47:17.325Z,0
2017-04-27T00:47:43.436Z,0
2017-04-27T00:48:09.537Z,0
2017-04-27T00:48:35.742Z,0
2017-04-27T00:49:01.851Z,0
2017-04-27T00:49:27.948Z,0
2017-04-27T00:49:54.082Z,0
2017-04-27T00:50:20.168Z,0
2017-04-27T00:50:46.269Z,0
2017-04-27T00:51:12.354Z,0
2017-04-27T00:51:38.455Z,0
2017-04-27T00:52:04.558Z,0
2017-04-27T00:52:30.644Z,0
2017-04-27T00:52:56.795Z,0
2017-04-27T00:53:22.924Z,0
2017-04-27T00:53:49.042Z,0
2017-04-27T00:54:15.135Z,0
2017-04-27T00:54:41.239Z,0
2017-04-27T00:55:07.328Z,0
2017-04-27T00:55:33.418Z,0
2017-04-27T00:55:59.541Z,0
2017-04-27T00:56:25.666Z,0
2017-04-27T00:56:51.796Z,0
2017-04-27T00:57:17.913Z,0
2017-04-27T00:57:44.008Z,0
2017-04-27T00:58:10.206Z,0
2017-04-27T00:58:36.340Z,0
2017-04-27T00:59:02.479Z,0
2017-04-27T00:59:28.640Z,0
2017-04-27T00:59:54.770Z,0
2017-04-27T01:00:20.898Z,0
2017-04-27T01:00:47.001Z,0
2017-04-27T01:01:13.099Z,0
2017-04-27T01:01:39.288Z,0
2017-04-27T01:02:05.414Z,0
2017-04-27T01:02:31.597Z,0
2017-04-27T01:02:57.757Z,0
2017-04-27T01:03:23.933Z,0
2017-04-27T01:03:50.037Z,0
2017-04-27T01:04:16.151Z,0
2017-04-27T01:04:42.269Z,0
2017-04-27T01:05:08.577Z,0
2017-04-27T01:05:34.694Z,0
2017-04-27T01:06:00.784Z,0
2017-04-27T01:06:26.991Z,0
2017-04-27T01:06:53.170Z,0
2017-04-27T01:07:19.295Z,0
2017-04-27T01:07:45.383Z,0
2017-04-27T01:08:11.526Z,0
2017-04-27T01:08:37.660Z,0
2017-04-27T01:09:03.859Z,0
2017-04-27T01:09:29.996Z,0
2017-04-27T01:09:56.128Z,0
2017-04-27T01:10:22.248Z,0
2017-04-27T01:10:48.336Z,0
2017-04-27T01:11:14.468Z,0
2017-04-27T01:11:40.567Z,0
2017-04-27T01:12:06.677Z,0
2017-04-27T01:12:32.802Z,0
2017-04-27T01:12:58.943Z,0
2017-04-27T01:13:25.102Z,0
2017-04-27T01:13:51.295Z,0
2017-04-27T01:14:17.384Z,0
2017-04-27T01:14:43.537Z,0
2017-04-27T01:15:09.662Z,0
2017-04-27T01:15:35.750Z,0
2017-04-27T01:16:01.877Z,0
2017-04-27T01:16:28.036Z,0
2017-04-27T01:16:54.147Z,0
2017-04-27T01:17:20.242Z,0
2017-04-27T01:17:46.373Z,0
2017-04-27T01:18:12.460Z,0
2017-04-27T01:18:38.561Z,0
2017-04-27T01:19:04.674Z,0
2017-04-27T01:19:30.823Z,0
2017-04-27T01:19:56.925Z,0
2017-04-27T01:20:23.063Z,0
2017-04-27T01:20:49.162Z,0
2017-04-27T01:21:15.343Z,0
2017-04-27T01:21:41.432Z,0
2017-04-27T01:22:07.596Z,0
2017-04-27T01:22:33.703Z,0
2017-04-27T01:22:59.793Z,0
2017-04-27T01:23:25.883Z,0
2017-04-27T01:23:52.036Z,0
2017-04-27T01:24:18.152Z,0
2017-04-27T01:24:44.257Z,0
2017-04-27T01:25:10.395Z,0
2017-04-27T01:25:36.516Z,0
2017-04-27T01:26:02.646Z,0
2017-04-27T01:26:28.789Z,0
2017-04-27T01:26:54.953Z,0
2017-04-27T01:27:21.085Z,0
2017-04-27T01:27:47.259Z,0
2017-04-27T01:28:13.396Z,0
2017-04-27T01:28:39.529Z,0
2017-04-27T01:29:05.682Z,0
2017-04-27T01:29:31.830Z,0
2017-04-27T01:29:58.000Z,0
2017-04-27T01:30:24.112Z,0
2017-04-27T01:30:50.220Z,0
2017-04-27T01:31:16.312Z,0
2017-04-27T01:31:42.453Z,0
2017-04-27T01:32:08.554Z,0
2017-04-27T01:32:34.680Z,0
2017-04-27T01:33:00.817Z,0
2017-04-27T01:33:26.942Z,0
2017-04-27T01:33:53.127Z,0
2017-04-27T01:34:19.236Z,0
2017-04-27T01:34:45.361Z,0
2017-04-27T01:35:11.508Z,0
2017-04-27T01:35:37.611Z,0
2017-04-27T01:36:03.708Z,0
2017-04-27T01:36:29.821Z,0
2017-04-27T01:36:55.922Z,0
2017-04-27T01:37:22.025Z,0
2017-04-27T01:37:48.110Z,0
2017-04-27T01:38:14.257Z,0
2017-04-27T01:38:40.363Z,0
2017-04-27T01:39:06.501Z,0
2017-04-27T01:39:32.621Z,0
2017-04-27T01:39:58.807Z,0
2017-04-27T01:40:24.924Z,0
2017-04-27T01:40:51.058Z,0
2017-04-27T01:41:17.141Z,0
2017-04-27T01:41:43.241Z,0
2017-04-27T01:42:09.343Z,0
2017-04-27T01:42:35.483Z,0
2017-04-27T01:43:01.630Z,0
2017-04-27T01:43:27.759Z,0
2017-04-27T01:43:53.907Z,0
2017-04-27T01:44:20.042Z,0
2017-04-27T01:44:46.172Z,0
2017-04-27T01:45:12.294Z,0
2017-04-27T01:45:38.382Z,0
2017-04-27T01:46:04.484Z,0
2017-04-27T01:46:30.579Z,0
2017-04-27T01:46:56.667Z,0
2017-04-27T01:47:22.767Z,0
2017-04-27T01:47:48.895Z,0
2017-04-27T01:48:15.006Z,0
2017-04-27T01:48:41.129Z,0
2017-04-27T01:49:07.289Z,0
2017-04-27T01:49:33.379Z,0
2017-04-27T01:49:59.496Z,0
2017-04-27T01:50:25.625Z,0
2017-04-27T01:50:51.740Z,0
2017-04-27T01:51:17.852Z,0
2017-04-27T01:51:43.953Z,0
2017-04-27T01:52:10.077Z,0
2017-04-27T01:52:36.180Z,0
2017-04-27T01:53:02.274Z,0
2017-04-27T01:53:28.386Z,0
2017-04-27T01:53:54.517Z,0
2017-04-27T01:54:20.636Z,0
2017-04-27T01:54:46.750Z,0
2017-04-27T01:55:12.983Z,0
2017-04-27T01:55:39.077Z,0
2017-04-27T01:56:05.313Z,0
2017-04-27T01:56:31.415Z,0
2017-04-27T01:56:57.568Z,0
2017-04-27T01:57:23.664Z,0
2017-04-27T01:57:49.780Z,0
2017-04-27T01:58:15.894Z,0
2017-04-27T01:58:42.080Z,0
2017-04-27T01:59:08.172Z,0
2017-04-27T01:59:34.257Z,0
2017-04-27T02:00:00.360Z,0
2017-04-27T02:00:26.485Z,0
2017-04-27T02:00:52.597Z,0
2017-04-27T02:01:18.695Z,0
2017-04-27T02:01:44.828Z,0
2017-04-27T02:02:10.962Z,0
2017-04-27T02:02:37.112Z,0
2017-04-27T02:03:03.285Z,0
2017-04-27T02:03:29.417Z,0
2017-04-27T02:03:55.569Z,0
2017-04-27T02:04:21.707Z,0
2017-04-27T02:04:47.882Z,0
2017-04-27T02:05:14.015Z,0
2017-04-27T02:05:40.099Z,0
2017-04-27T02:06:06.246Z,0
2017-04-27T02:06:32.376Z,0
2017-04-27T02:06:58.463Z,0
2017-04-27T02:07:24.558Z,0
2017-04-27T02:07:50.718Z,0
2017-04-27T02:08:16.833Z,0
2017-04-27T02:08:43.019Z,0
2017-04-27T02:09:09.156Z,0
2017-04-27T02:09:35.302Z,0
2017-04-27T02:10:01.432Z,0
2017-04-27T02:10:27.523Z,0
2017-04-27T02:10:53.666Z,0
2017-04-27T02:11:19.821Z,0
2017-04-27T02:11:45.964Z,0
2017-04-27T02:12:12.075Z,0
2017-04-27T02:12:38.184Z,0
2017-04-27T02:13:04.331Z,0
2017-04-27T02:13:30.494Z,0
2017-04-27T02:13:56.677Z,0
2017-04-27T02:14:22.795Z,0
2017-04-27T02:14:48.900Z,0
2017-04-27T02:15:15.045Z,0
2017-04-27T02:15:41.181Z,0
2017-04-27T02:16:07.289Z,0
2017-04-27T02:16:33.381Z,0
2017-04-27T02:16:59.468Z,0
2017-04-27T02:17:25.573Z,0
2017-04-27T02:17:51.697Z,0
2017-04-27T02:18:17.833Z,0
2017-04-27T02:18:44.007Z,0
2017-04-27T02:19:10.138Z,0
2017-04-27T02:19:36.255Z,0
2017-04-27T02:20:02.376Z,0
2017-04-27T02:20:28.464Z,0
2017-04-27T02:20:54.566Z,0
2017-04-27T02:21:20.662Z,0
2017-04-27T02:21:46.758Z,0
2017-04-27T02:22:12.874Z,0
2017-04-27T02:22:38.978Z,0
2017-04-27T02:23:05.063Z,0
2017-04-27T02:23:31.184Z,0
2017-04-27T02:23:57.342Z,0
2017-04-27T02:24:23.430Z,0
2017-04-27T02:24:49.572Z,0
2017-04-27T02:25:15.725Z,0
2017-04-27T02:25:41.824Z,0
2017-04-27T02:26:07.927Z,0
2017-04-27T02:26:34.011Z,0
2017-04-27T02:27:00.131Z,0
2017-04-27T02:27:26.234Z,0
2017-04-27T02:27:52.370Z,0
2017-04-27T02:28:18.487Z,0
2017-04-27T02:28:44.619Z,0
2017-04-27T02:29:10.766Z,0
2017-04-27T02:29:36.902Z,0
2017-04-27T02:30:03.064Z,0
2017-04-27T02:30:29.211Z,0
2017-04-27T02:30:55.298Z,0
2017-04-27T02:31:21.402Z,0
2017-04-27T02:31:47.496Z,0
2017-04-27T02:32:13.609Z,0
2017-04-27T02:32:39.710Z,0
2017-04-27T02:33:05.813Z,0
2017-04-27T02:33:31.921Z,0
2017-04-27T02:33:58.044Z,0
2017-04-27T02:34:24.174Z,0
2017-04-27T02:34:50.289Z,0
2017-04-27T02:35:16.409Z,0
2017-04-27T02:35:42.510Z,0
2017-04-27T02:36:08.602Z,0
2017-04-27T02:36:34.729Z,0
2017-04-27T02:37:00.811Z,0
2017-04-27T02:37:26.935Z,0
2017-04-27T02:37:53.040Z,0
2017-04-27T02:38:19.128Z,0
2017-04-27T02:38:45.298Z,0
2017-04-27T02:39:11.428Z,0
2017-04-27T02:39:37.595Z,0
2017-04-27T02:40:03.733Z,0
2017-04-27T02:40:29.842Z,0
2017-04-27T02:40:55.989Z,0
2017-04-27T02:41:22.075Z,0
2017-04-27T02:41:48.177Z,0
2017-04-27T02:42:14.293Z,0
2017-04-27T02:42:40.451Z,0
2017-04-27T02:43:06.542Z,0
2017-04-27T02:43:32.654Z,0
2017-04-27T02:43:58.839Z,0
2017-04-27T02:44:24.989Z,0
2017-04-27T02:44:51.102Z,0
2017-04-27T02:45:17.204Z,0
2017-04-27T02:45:43.328Z,0
2017-04-27T02:46:09.418Z,0
2017-04-27T02:46:35.516Z,0
2017-04-27T02:47:01.617Z,0
2017-04-27T02:47:27.734Z,0
2017-04-27T02:47:53.829Z,0
2017-04-27T02:48:19.968Z,0
2017-04-27T02:48:46.097Z,0
2017-04-27T02:49:12.247Z,0
2017-04-27T02:49:38.361Z,0
2017-04-27T02:50:04.485Z,0
2017-04-27T02:50:30.591Z,0
2017-04-27T02:50:56.676Z,0
2017-04-27T02:51:22.822Z,0
2017-04-27T02:51:48.953Z,0
2017-04-27T02:52:15.041Z,0
2017-04-27T02:52:41.161Z,0
2017-04-27T02:53:07.311Z,0
2017-04-27T02:53:33.439Z,0
2017-04-27T02:53:59.597Z,0
2017-04-27T02:54:25.735Z,0
2017-04-27T02:54:51.855Z,0
2017-04-27T02:55:18.014Z,0
2017-04-27T02:55:44.102Z,0
2017-04-27T02:56:10.244Z,0
2017-04-27T02:56:36.347Z,0
2017-04-27T02:57:02.468Z,0
2017-04-27T02:57:28.579Z,0
2017-04-27T02:57:54.741Z,0
2017-04-27T02:58:20.865Z,0
2017-04-27T02:58:47.016Z,0
2017-04-27T02:59:13.159Z,0
2017-04-27T02:59:39.300Z,0
2017-04-27T03:00:05.458Z,0
2017-04-27T03:00:31.549Z,0
2017-04-27T03:00:57.638Z,0
2017-04-27T03:01:23.744Z,0
2017-04-27T03:01:49.865Z,0
2017-04-27T03:02:15.978Z,0
2017-04-27T03:02:42.112Z,0
2017-04-27T03:03:08.322Z,0
2017-04-27T03:03:34.434Z,0
2017-04-27T03:04:00.607Z,0
2017-04-27T03:04:26.693Z,0
2017-04-27T03:04:52.827Z,0
2017-04-27T03:05:18.920Z,0
2017-04-27T03:05:45.009Z,0
2017-04-27T03:06:11.110Z,0
2017-04-27T03:06:37.209Z,0
2017-04-27T03:07:03.296Z,0
2017-04-27T03:07:29.444Z,0
2017-04-27T03:07:55.575Z,0
2017-04-27T03:08:21.660Z,0
2017-04-27T03:08:47.806Z,0
2017-04-27T03:09:13.936Z,0
2017-04-27T03:09:40.051Z,0
2017-04-27T03:10:06.152Z,0
2017-04-27T03:10:32.265Z,0
2017-04-27T03:10:58.389Z,0
2017-04-27T03:11:24.523Z,0
2017-04-27T03:11:50.606Z,0
2017-04-27T03:12:16.727Z,0
2017-04-27T03:12:42.858Z,0
2017-04-27T03:13:09.052Z,0
2017-04-27T03:13:35.147Z,0
2017-04-27T03:14:01.279Z,0
2017-04-27T03:14:27.422Z,0
2017-04-27T03:14:53.557Z,0
2017-04-27T03:15:19.689Z,0
2017-04-27T03:15:45.809Z,0
2017-04-27T03:16:11.921Z,0
2017-04-27T03:16:38.075Z,0
2017-04-27T03:17:04.173Z,0
2017-04-27T03:17:30.261Z,0
2017-04-27T03:17:56.439Z,0
2017-04-27T03:18:22.568Z,0
2017-04-27T03:18:48.703Z,0
2017-04-27T03:19:14.873Z,0
2017-04-27T03:19:41.003Z,0
2017-04-27T03:20:07.091Z,0
2017-04-27T03:20:33.185Z,0
2017-04-27T03:20:59.277Z,0
2017-04-27T03:21:25.378Z,0
2017-04-27T03:21:51.481Z,0
2017-04-27T03:22:17.612Z,0
2017-04-27T03:22:43.708Z,0
2017-04-27T03:23:09.839Z,0
2017-04-27T03:23:35.928Z,0
2017-04-27T03:24:02.096Z,0
2017-04-27T03:24:28.197Z,0
2017-04-27T03:24:54.314Z,0
2017-04-27T03:25:20.400Z,0
2017-04-27T03:25:46.534Z,0
2017-04-27T03:26:12.626Z,0
2017-04-27T03:26:38.724Z,0
2017-04-27T03:27:04.838Z,0
2017-04-27T03:27:30.959Z,0
2017-04-27T03:27:57.149Z,0
2017-04-27T03:28:23.291Z,0
2017-04-27T03:28:49.402Z,0
2017-04-27T03:29:15.558Z,0
2017-04-27T03:29:41.653Z,4
2017-04-27T03:30:07.788Z,4
2017-04-27T03:30:33.894Z,4
2017-04-27T03:31:00.046Z,4
2017-04-27T03:31:26.133Z,4
2017-04-27T03:31:52.260Z,0
2017-04-27T03:32:18.374Z,0
2017-04-27T03:32:44.510Z,0
2017-04-27T03:33:10.660Z,4
2017-04-27T03:33:36.796Z,4
2017-04-27T03:34:02.980Z,4
2017-04-27T03:34:29.104Z,4
2017-04-27T03:34:55.217Z,4
2017-04-27T03:35:21.342Z,4
2017-04-27T03:35:47.445Z,4
2017-04-27T03:36:13.530Z,4
2017-04-27T03:36:39.627Z,8
2017-04-27T03:37:05.730Z,4
2017-04-27T03:37:31.842Z,8
2017-04-27T03:37:58.024Z,8
2017-04-27T03:38:24.137Z,4
2017-04-27T03:38:50.312Z,8
2017-04-27T03:39:16.416Z,4
2017-04-27T03:39:42.527Z,8
2017-04-27T03:40:08.673Z,12
2017-04-27T03:40:34.777Z,8
2017-04-27T03:41:00.915Z,12
2017-04-27T03:41:27.058Z,12
2017-04-27T03:41:53.160Z,8
2017-04-27T03:42:19.249Z,12
2017-04-27T03:42:45.385Z,12
2017-04-27T03:43:11.486Z,12
2017-04-27T03:43:37.631Z,16
2017-04-27T03:44:03.817Z,16
2017-04-27T03:44:29.930Z,16
2017-04-27T03:44:56.047Z,16
2017-04-27T03:45:22.177Z,20
2017-04-27T03:45:48.296Z,20
2017-04-27T03:46:14.383Z,24
2017-04-27T03:46:40.490Z,24
2017-04-27T03:47:06.612Z,28
2017-04-27T03:47:32.749Z,28
2017-04-27T03:47:58.878Z,28
2017-04-27T03:48:25.028Z,32
2017-04-27T03:48:51.173Z,36
2017-04-27T03:49:17.318Z,36
2017-04-27T03:49:43.477Z,36
2017-04-27T03:50:09.608Z,40
2017-04-27T03:50:35.703Z,44
2017-04-27T03:51:01.840Z,48
2017-04-27T03:51:27.940Z,52
2017-04-27T03:51:54.039Z,52
2017-04-27T03:52:20.125Z,56
2017-04-27T03:52:46.251Z,60
2017-04-27T03:53:12.462Z,60
2017-04-27T03:53:38.545Z,68
2017-04-27T03:54:04.691Z,72
2017-04-27T03:54:30.781Z,72
2017-04-27T03:54:56.884Z,80
2017-04-27T03:55:23.033Z,84
2017-04-27T03:55:49.144Z,84
2017-04-27T03:56:15.271Z,92
2017-04-27T03:56:41.374Z,100
2017-04-27T03:57:07.459Z,104
2017-04-27T03:57:33.581Z,108
2017-04-27T03:57:59.741Z,116
2017-04-27T03:58:25.877Z,120
2017-04-27T03:58:51.997Z,128
2017-04-27T03:59:18.154Z,132
2017-04-27T03:59:44.272Z,140
2017-04-27T04:00:10.381Z,148
2017-04-27T04:00:36.486Z,152
2017-04-27T04:01:02.582Z,160
2017-04-27T04:01:28.692Z,168
2017-04-27T04:01:54.794Z,176
2017-04-27T04:02:20.889Z,184
2017-04-27T04:02:47.000Z,192
2017-04-27T04:03:13.151Z,200
2017-04-27T04:03:39.304Z,212
2017-04-27T04:04:05.386Z,220
2017-04-27T04:04:31.483Z,232
2017-04-27T04:04:57.587Z,236
2017-04-27T04:05:23.701Z,248
2017-04-27T04:05:49.800Z,260
2017-04-27T04:06:15.888Z,268
2017-04-27T04:06:42.014Z,280
2017-04-27T04:07:08.147Z,292
2017-04-27T04:07:34.287Z,300
2017-04-27T04:08:00.355Z,316
2017-04-27T04:08:26.458Z,328
2017-04-27T04:08:52.602Z,340
2017-04-27T04:09:18.770Z,348
2017-04-27T04:09:44.901Z,364
2017-04-27T04:10:10.991Z,376
2017-04-27T04:10:37.078Z,392
2017-04-27T04:11:03.233Z,404
2017-04-27T04:11:29.330Z,416
2017-04-27T04:11:55.486Z,432
2017-04-27T04:12:21.574Z,444
2017-04-27T04:12:47.668Z,460
2017-04-27T04:13:13.799Z,476
2017-04-27T04:13:39.914Z,492
2017-04-27T04:14:06.003Z,504
2017-04-27T04:14:32.136Z,520
2017-04-27T04:14:58.285Z,536
2017-04-27T04:15:24.419Z,552
2017-04-27T04:15:50.523Z,568
2017-04-27T04:16:16.673Z,584
2017-04-27T04:16:42.819Z,600
2017-04-27T04:17:08.935Z,620
2017-04-27T04:17:35.072Z,636
2017-04-27T04:18:01.179Z,652
2017-04-27T04:18:27.298Z,672
2017-04-27T04:18:53.457Z,692
2017-04-27T04:19:19.616Z,712
2017-04-27T04:19:45.740Z,732
2017-04-27T04:20:11.875Z,748
2017-04-27T04:20:37.976Z,768
2017-04-27T04:21:04.108Z,788
2017-04-27T04:21:30.218Z,804
2017-04-27T04:21:56.317Z,828
2017-04-27T04:22:22.407Z,848
2017-04-27T04:22:48.536Z,868
2017-04-27T04:23:14.661Z,888
2017-04-27T04:23:40.796Z,908
2017-04-27T04:24:06.944Z,932
2017-04-27T04:24:33.102Z,952
2017-04-27T04:24:59.214Z,972
2017-04-27T04:25:25.359Z,996
2017-04-27T04:25:51.490Z,1016
2017-04-27T04:26:17.576Z,1040
2017-04-27T04:26:43.694Z,1064
2017-04-27T04:27:09.797Z,1084
2017-04-27T04:27:35.943Z,1108
2017-04-27T04:28:02.125Z,1132
2017-04-27T04:28:28.211Z,1156
2017-04-27T04:28:54.358Z,1180
2017-04-27T04:29:20.514Z,1204
2017-04-27T04:29:46.655Z,1228
2017-04-27T04:30:12.802Z,1256
2017-04-27T04:30:38.903Z,1276
2017-04-27T04:31:04.991Z,1304
2017-04-27T04:31:31.077Z,1324
2017-04-27T04:31:57.183Z,1352
2017-04-27T04:32:23.274Z,1372
2017-04-27T04:32:49.365Z,1396
2017-04-27T04:33:15.517Z,1420
2017-04-27T04:33:41.632Z,1444
2017-04-27T04:34:07.790Z,1468
2017-04-27T04:34:33.882Z,1492
2017-04-27T04:34:59.995Z,1520
2017-04-27T04:35:26.123Z,1544
2017-04-27T04:35:52.270Z,1568
2017-04-27T04:36:18.383Z,1592
2017-04-27T04:36:44.486Z,1616
2017-04-27T04:37:10.611Z,1632
2017-04-27T04:37:36.722Z,1656
2017-04-27T04:38:02.875Z,1680
2017-04-27T04:38:29.031Z,1704
2017-04-27T04:38:55.153Z,1728
2017-04-27T04:39:21.296Z,1752
2017-04-27T04:39:47.408Z,1776
2017-04-27T04:40:13.533Z,1804
2017-04-27T04:40:39.655Z,1824
2017-04-27T04:41:05.742Z,1852
2017-04-27T04:41:31.868Z,1880
2017-04-27T04:41:57.972Z,1908
2017-04-27T04:42:24.081Z,1932
2017-04-27T04:42:50.175Z,1956
2017-04-27T04:43:16.307Z,1980
2017-04-27T04:43:42.445Z,2012
2017-04-27T04:44:08.538Z,2036
2017-04-27T04:44:34.699Z,2060
2017-04-27T04:45:00.815Z,2084
2017-04-27T04:45:26.929Z,2108
2017-04-27T04:45:53.088Z,2136
2017-04-27T04:46:19.183Z,2156
2017-04-27T04:46:45.272Z,2180
2017-04-27T04:47:11.404Z,2204
2017-04-27T04:47:37.531Z,2228
2017-04-27T04:48:03.691Z,2256
2017-04-27T04:48:29.868Z,2284
2017-04-27T04:48:56.003Z,2320
2017-04-27T04:49:22.113Z,2352
2017-04-27T04:49:48.235Z,2388
2017-04-27T04:50:14.384Z,2428
2017-04-27T04:50:40.487Z,2468
2017-04-27T04:51:06.611Z,2508
2017-04-27T04:51:32.699Z,2552
2017-04-27T04:51:58.850Z,2600
2017-04-27T04:52:24.982Z,2652
2017-04-27T04:52:51.092Z,2708
2017-04-27T04:53:17.215Z,2776
2017-04-27T04:53:43.401Z,2856
2017-04-27T04:54:09.515Z,2936
2017-04-27T04:54:35.632Z,3024
2017-04-27T04:55:01.762Z,3112
2017-04-27T04:55:27.851Z,3196
2017-04-27T04:55:53.977Z,3268
2017-04-27T04:56:20.085Z,3344
2017-04-27T04:56:46.183Z,3404
2017-04-27T04:57:12.314Z,3460
2017-04-27T04:57:38.426Z,3512
2017-04-27T04:58:04.545Z,3568
2017-04-27T04:58:30.678Z,3612
2017-04-27T04:58:56.850Z,3660
2017-04-27T04:59:22.962Z,3704
2017-04-27T04:59:49.121Z,3744
2017-04-27T05:00:15.266Z,3776
2017-04-27T05:00:41.380Z,3816
2017-04-27T05:01:07.484Z,3848
2017-04-27T05:01:33.577Z,3880
2017-04-27T05:01:59.735Z,3900
2017-04-27T05:02:25.829Z,3928
2017-04-27T05:02:51.988Z,3948
2017-04-27T05:03:18.119Z,3968
2017-04-27T05:03:44.241Z,3980
2017-04-27T05:04:10.377Z,3992
2017-04-27T05:04:36.532Z,4004
2017-04-27T05:05:02.655Z,4008
2017-04-27T05:05:28.793Z,4012
2017-04-27T05:05:54.892Z,4016
2017-04-27T05:06:20.996Z,4016
2017-04-27T05:06:47.110Z,4004
2017-04-27T05:07:13.257Z,3988
2017-04-27T05:07:39.345Z,3972
2017-04-27T05:08:05.502Z,3956
2017-04-27T05:08:31.653Z,3940
2017-04-27T05:08:57.790Z,3928
2017-04-27T05:09:23.954Z,3912
2017-04-27T05:09:50.046Z,3912
2017-04-27T05:10:16.157Z,3920
2017-04-27T05:10:42.280Z,3940
2017-04-27T05:11:08.381Z,3964
2017-04-27T05:11:34.467Z,3992
2017-04-27T05:12:00.560Z,4024
2017-04-27T05:12:26.654Z,4048
2017-04-27T05:12:52.781Z,4068
2017-04-27T05:13:18.965Z,4080
2017-04-27T05:13:45.050Z,4092
2017-04-27T05:14:11.175Z,4092
2017-04-27T05:14:37.307Z,4084
2017-04-27T05:15:03.444Z,4084
2017-04-27T05:15:29.566Z,4088
2017-04-27T05:15:55.666Z,4092
2017-04-27T05:16:21.784Z,4096
2017-04-27T05:16:47.873Z,4100
2017-04-27T05:17:13.978Z,4108
2017-04-27T05:17:40.073Z,4116
2017-04-27T05:18:06.250Z,4128
2017-04-27T05:18:32.337Z,4140
2017-04-27T05:18:58.457Z,4148
2017-04-27T05:19:24.643Z,4132
2017-04-27T05:19:50.734Z,4104
2017-04-27T05:20:16.869Z,4104
2017-04-27T05:20:43.034Z,4132
2017-04-27T05:21:09.125Z,4180
2017-04-27T05:21:35.212Z,4236
2017-04-27T05:22:01.317Z,4272
2017-04-27T05:22:27.413Z,4312
2017-04-27T05:22:53.524Z,4340
2017-04-27T05:23:19.656Z,4372
2017-04-27T05:23:45.739Z,4408
2017-04-27T05:24:11.931Z,4444
2017-04-27T05:24:38.078Z,4472
2017-04-27T05:25:04.240Z,4500
2017-04-27T05:25:30.342Z,4520
2017-04-27T05:25:56.439Z,4536
2017-04-27T05:26:22.527Z,4552
2017-04-27T05:26:48.628Z,4564
2017-04-27T05:27:14.758Z,4572
2017-04-27T05:27:40.921Z,4580
2017-04-27T05:28:07.118Z,4580
2017-04-27T05:28:33.249Z,4588
2017-04-27T05:28:59.365Z,4600
2017-04-27T05:29:25.508Z,4616
2017-04-27T05:29:51.640Z,4628
2017-04-27T05:30:17.785Z,4644
2017-04-27T05:30:43.910Z,4660
2017-04-27T05:31:10.020Z,4680
2017-04-27T05:31:36.129Z,4692
2017-04-27T05:32:02.243Z,4720
2017-04-27T05:32:28.345Z,4744
2017-04-27T05:32:54.471Z,4772
2017-04-27T05:33:20.559Z,4796
2017-04-27T05:33:46.714Z,4820
2017-04-27T05:34:12.816Z,4844
2017-04-27T05:34:38.933Z,4860
2017-04-27T05:35:05.080Z,4876
2017-04-27T05:35:31.191Z,4896
2017-04-27T05:35:57.294Z,4912
2017-04-27T05:36:23.391Z,4936
2017-04-27T05:36:49.478Z,4956
2017-04-27T05:37:15.577Z,4976
2017-04-27T05:37:41.679Z,4996
2017-04-27T05:38:07.787Z,5012
2017-04-27T05:38:33.884Z,5024
2017-04-27T05:39:00.047Z,5032
2017-04-27T05:39:26.237Z,5048
2017-04-27T05:39:52.378Z,5064
2017-04-27T05:40:18.498Z,5080
2017-04-27T05:40:44.599Z,5092
2017-04-27T05:41:10.704Z,5112
2017-04-27T05:41:36.816Z,5128
2017-04-27T05:42:02.937Z,5148
2017-04-27T05:42:29.042Z,5160
2017-04-27T05:42:55.184Z,5180
2017-04-27T05:43:21.327Z,5200
2017-04-27T05:43:47.512Z,5216
2017-04-27T05:44:13.708Z,5236
2017-04-27T05:44:39.822Z,5264
2017-04-27T05:45:05.928Z,5284
2017-04-27T05:45:32.022Z,5308
2017-04-27T05:45:58.121Z,5324
2017-04-27T05:46:24.233Z,5344
2017-04-27T05:46:50.325Z,5364
2017-04-27T05:47:16.457Z,5388
2017-04-27T05:47:42.577Z,5404
2017-04-27T05:48:08.687Z,5420
2017-04-27T05:48:34.824Z,5444
2017-04-27T05:49:01.004Z,5472
2017-04-27T05:49:27.116Z,5492
2017-04-27T05:49:53.244Z,5520
2017-04-27T05:50:19.341Z,5548
2017-04-27T05:50:45.451Z,5560
2017-04-27T05:51:11.575Z,5564
2017-04-27T05:51:37.663Z,5580
2017-04-27T05:52:03.770Z,5596
2017-04-27T05:52:29.866Z,5616
2017-04-27T05:52:55.981Z,5640
2017-04-27T05:53:22.109Z,5660
2017-04-27T05:53:48.321Z,5680
2017-04-27T05:54:14.459Z,5700
2017-04-27T05:54:40.583Z,5720
2017-04-27T05:55:06.686Z,5744
2017-04-27T05:55:32.770Z,5768
2017-04-27T05:55:58.893Z,5780
2017-04-27T05:56:24.996Z,5796
2017-04-27T05:56:51.140Z,5808
2017-04-27T05:57:17.268Z,5836
2017-04-27T05:57:43.381Z,5856
2017-04-27T05:58:09.506Z,5876
2017-04-27T05:58:35.610Z,5896
2017-04-27T05:59:01.798Z,5916
2017-04-27T05:59:27.896Z,5936
2017-04-27T05:59:54.029Z,5952
2017-04-27T06:00:20.196Z,5972
2017-04-27T06:00:46.304Z,5992
2017-04-27T06:01:12.392Z,6012
2017-04-27T06:01:38.481Z,6032
2017-04-27T06:02:04.593Z,6056
2017-04-27T06:02:30.721Z,6068
2017-04-27T06:02:56.893Z,6084
2017-04-27T06:03:23.024Z,6100
2017-04-27T06:03:49.114Z,6120
2017-04-27T06:04:15.255Z,6140
2017-04-27T06:04:41.386Z,6160
2017-04-27T06:05:07.557Z,6180
2017-04-27T06:05:33.648Z,6192
2017-04-27T06:05:59.778Z,6212
2017-04-27T06:06:25.900Z,6224
2017-04-27T06:06:52.047Z,6248
2017-04-27T06:07:18.140Z,6260
2017-04-27T06:07:44.266Z,6276
2017-04-27T06:08:10.437Z,6296
2017-04-27T06:08:36.532Z,6316
2017-04-27T06:09:02.667Z,6340
2017-04-27T06:09:28.802Z,6360
2017-04-27T06:09:54.897Z,6372
2017-04-27T06:10:20.986Z,6380
2017-04-27T06:10:47.116Z,6376
2017-04-27T06:11:13.217Z,6376
2017-04-27T06:11:39.306Z,6380